Time,TemperatureC,DewpointC,PressurehPa,WindDirection,WindDirectionDegrees,WindSpeedKMH,WindSpeedGustKMH,Humidity,HourlyPrecipMM,Conditions,Clouds,dailyrainMM,SolarRadiationWatts/m^2,UVIndex,SoftwareType,DateUTC
2026-05-03 00:04:59,5.1,4,1034.0,East,100,0,0,93,0.0,,,0.0,0,0,n/a,2026-05-02T12:04:59Z
2026-05-03 00:09:55,5,3.9,1034.0,East,100,0,0,93,0.0,,,0.0,0,0,n/a,2026-05-02T12:09:55Z
2026-05-03 00:14:59,4.8,3.8,1033.9,East,100,0,0,93,0.0,,,0.0,0,0,n/a,2026-05-02T12:14:59Z
2026-05-03 00:19:59,4.7,3.7,1033.9,East,100,0,0,93,0.0,,,0.0,0,0,n/a,2026-05-02T12:19:59Z
2026-05-03 00:24:57,4.6,3.6,1033.9,East,100,0,0,93,0.0,,,0.0,0,0,n/a,2026-05-02T12:24:57Z
2026-05-03 00:29:54,4.5,3.5,1033.9,East,100,0,0,93,0.0,,,0.0,0,0,n/a,2026-05-02T12:29:54Z
2026-05-03 00:34:56,4.5,3.4,1033.9,East,100,0,0,93,0.0,,,0.0,0,0,n/a,2026-05-02T12:34:56Z
2026-05-03 00:39:55,4.3,3.3,1033.9,East,100,0,0,93,0.0,,,0.0,0,0,n/a,2026-05-02T12:39:55Z
2026-05-03 00:44:58,4.2,3.2,1033.9,East,100,0,0,93,0.0,,,0.0,0,0,n/a,2026-05-02T12:44:58Z
2026-05-03 00:49:55,4.1,3.1,1033.9,East,100,0,0,93,0.0,,,0.0,0,0,n/a,2026-05-02T12:49:55Z
2026-05-03 00:54:54,4,2.9,1034.0,East,100,0,0,93,0.0,,,0.0,0,0,n/a,2026-05-02T12:54:54Z
2026-05-03 00:59:57,4,2.9,1034.0,East,100,0,0,93,0.0,,,0.0,0,0,n/a,2026-05-02T12:59:57Z
2026-05-03 01:04:54,3.9,2.9,1034.0,East,100,0,0,93,0.0,,,0.0,0,0,n/a,2026-05-02T13:04:54Z
2026-05-03 01:09:58,3.9,2.8,1034.0,East,100,0,0,93,0.0,,,0.0,0,0,n/a,2026-05-02T13:09:58Z
2026-05-03 01:14:56,3.8,2.8,1034.0,East,100,0,0,93,0.0,,,0.0,0,0,n/a,2026-05-02T13:14:56Z
2026-05-03 01:19:58,3.8,2.8,1033.9,East,100,0,0,93,0.0,,,0.0,0,0,n/a,2026-05-02T13:19:58Z
2026-05-03 01:24:56,3.8,2.7,1033.8,East,100,0,0,93,0.0,,,0.0,0,0,n/a,2026-05-02T13:24:56Z
2026-05-03 01:29:54,3.7,2.7,1033.8,East,100,0,0,93,0.0,,,0.0,0,0,n/a,2026-05-02T13:29:54Z
2026-05-03 01:34:56,3.7,2.7,1033.8,East,100,0,0,93,0.0,,,0.0,0,0,n/a,2026-05-02T13:34:56Z
2026-05-03 01:39:54,3.6,2.6,1033.8,East,100,0,0,93,0.0,,,0.0,0,0,n/a,2026-05-02T13:39:54Z
2026-05-03 01:44:57,3.5,2.5,1033.8,East,100,0,0,93,0.0,,,0.0,0,0,n/a,2026-05-02T13:44:57Z
2026-05-03 01:49:54,3.4,2.4,1033.7,East,100,0,0,93,0.0,,,0.0,0,0,n/a,2026-05-02T13:49:54Z
2026-05-03 01:54:58,3.4,2.4,1033.7,East,100,0,0,93,0.0,,,0.0,0,0,n/a,2026-05-02T13:54:58Z
2026-05-03 01:59:55,3.5,2.5,1033.7,East,100,0,0,93,0.0,,,0.0,0,0,n/a,2026-05-02T13:59:55Z
2026-05-03 02:04:56,3.6,2.6,1033.7,East,100,0,0,93.1,0.0,,,0.0,0,0,n/a,2026-05-02T14:04:56Z
2026-05-03 02:09:54,3.6,2.6,1033.7,East,100,0,0,93,0.0,,,0.0,0,0,n/a,2026-05-02T14:09:54Z
2026-05-03 02:14:57,3.6,2.6,1033.7,East,100,0,0,93,0.0,,,0.0,0,0,n/a,2026-05-02T14:14:57Z
2026-05-03 02:19:54,3.7,2.8,1033.6,East,100,0.2,3.7,93.7,0.0,,,0.0,0,0,n/a,2026-05-02T14:19:54Z
2026-05-03 02:24:59,3.7,2.7,1033.6,East,100,0.5,3.7,93,0.0,,,0.0,0,0,n/a,2026-05-02T14:24:59Z
2026-05-03 02:29:59,3.7,2.7,1033.5,East,100,0.1,1.9,93,0.0,,,0.0,0,0,n/a,2026-05-02T14:29:59Z
2026-05-03 02:34:55,3.7,2.8,1033.5,East,100,0,1.9,93.5,0.0,,,0.0,0,0,n/a,2026-05-02T14:34:55Z
2026-05-03 02:39:59,3.7,2.7,1033.5,East,100,0.2,1.9,93,0.0,,,0.0,0,0,n/a,2026-05-02T14:39:59Z
2026-05-03 02:44:57,3.6,2.6,1033.5,East,100,0,0,93,0.0,,,0.0,0,0,n/a,2026-05-02T14:44:57Z
2026-05-03 02:49:58,3.5,2.5,1033.4,East,100,0.1,1.9,93,0.0,,,0.0,0,0,n/a,2026-05-02T14:49:58Z
2026-05-03 02:54:54,3.6,2.6,1033.3,East,100,0,0,93.8,0.0,,,0.0,0,0,n/a,2026-05-02T14:54:54Z
2026-05-03 02:59:56,3.5,2.6,1033.2,East,100,0,0,93.8,0.0,,,0.0,0,0,n/a,2026-05-02T14:59:56Z
2026-05-03 03:04:55,3.5,2.5,1033.2,East,100,0,0,93,0.0,,,0.0,0,0,n/a,2026-05-02T15:04:55Z
2026-05-03 03:09:55,3.6,2.7,1033.1,East,100,0,0,94,0.0,,,0.0,0,0,n/a,2026-05-02T15:09:55Z
2026-05-03 03:14:57,3.5,2.5,1033.0,East,100,0,0,93.2,0.0,,,0.0,0,0,n/a,2026-05-02T15:14:57Z
2026-05-03 03:19:54,3.4,2.4,1033.0,East,100,0,0,93,0.0,,,0.0,0,0,n/a,2026-05-02T15:19:54Z
2026-05-03 03:24:57,3.3,2.3,1033.0,East,100,0,0,93,0.0,,,0.0,0,0,n/a,2026-05-02T15:24:57Z
2026-05-03 03:29:59,3.2,2.2,1033.0,East,100,0,0,93,0.0,,,0.0,0,0,n/a,2026-05-02T15:29:59Z
2026-05-03 03:34:55,3.1,2.1,1033.0,East,100,0,0,93,0.0,,,0.0,0,0,n/a,2026-05-02T15:34:55Z
2026-05-03 03:39:55,3,2,1033.0,East,100,0,0,93,0.0,,,0.0,0,0,n/a,2026-05-02T15:39:55Z
2026-05-03 03:44:59,2.9,1.9,1033.0,East,100,0,0,93,0.0,,,0.0,0,0,n/a,2026-05-02T15:44:59Z
2026-05-03 03:49:55,2.8,1.8,1033.0,East,100,0,0,93,0.0,,,0.0,0,0,n/a,2026-05-02T15:49:55Z
2026-05-03 03:54:59,2.7,1.7,1032.9,East,100,0,0,93,0.0,,,0.0,0,0,n/a,2026-05-02T15:54:59Z
2026-05-03 03:59:55,2.7,1.7,1032.9,East,100,0,0,93,0.0,,,0.0,0,0,n/a,2026-05-02T15:59:55Z
2026-05-03 04:04:55,2.8,1.9,1032.8,East,100,0,0,93.7,0.0,,,0.0,0,0,n/a,2026-05-02T16:04:55Z
2026-05-03 04:09:57,2.8,1.9,1032.8,East,100,0,0,94,0.0,,,0.0,0,0,n/a,2026-05-02T16:09:57Z
2026-05-03 04:14:55,2.8,1.9,1032.8,East,100,0,0,94,0.0,,,0.0,0,0,n/a,2026-05-02T16:14:55Z
2026-05-03 04:19:58,2.7,1.8,1032.8,East,100,0,0,94,0.0,,,0.0,0,0,n/a,2026-05-02T16:19:58Z
2026-05-03 04:24:56,2.6,1.7,1032.7,East,100,0,0,93.9,0.0,,,0.0,0,0,n/a,2026-05-02T16:24:56Z
2026-05-03 04:29:59,2.5,1.6,1032.7,East,100,0,0,93.3,0.0,,,0.0,0,0,n/a,2026-05-02T16:29:59Z
2026-05-03 04:34:58,2.5,1.6,1032.7,East,100,0,0,94,0.0,,,0.0,0,0,n/a,2026-05-02T16:34:58Z
2026-05-03 04:39:57,2.5,1.6,1032.7,East,100,0,0,94,0.0,,,0.0,0,0,n/a,2026-05-02T16:39:57Z
2026-05-03 04:44:54,2.5,1.6,1032.7,East,100,0,0,94,0.0,,,0.0,0,0,n/a,2026-05-02T16:44:54Z
2026-05-03 04:49:58,2.4,1.6,1032.7,East,100,0,0,94,0.0,,,0.0,0,0,n/a,2026-05-02T16:49:58Z
2026-05-03 04:54:55,2.4,1.5,1032.7,East,100,0,0,94,0.0,,,0.0,0,0,n/a,2026-05-02T16:54:55Z
2026-05-03 04:59:59,2.4,1.5,1032.7,East,100,0,0,94,0.0,,,0.0,0,0,n/a,2026-05-02T16:59:59Z
2026-05-03 05:04:56,2.3,1.4,1032.6,East,100,0,0,94,0.0,,,0.0,0,0,n/a,2026-05-02T17:04:56Z
2026-05-03 05:09:54,2.2,1.3,1032.5,East,100,0,0,94,0.0,,,0.0,0,0,n/a,2026-05-02T17:09:54Z
2026-05-03 05:14:58,2.1,1.2,1032.6,East,100,0,0,94,0.0,,,0.0,0,0,n/a,2026-05-02T17:14:58Z
2026-05-03 05:19:54,2.1,1.2,1032.6,East,100,0,0,94,0.0,,,0.0,0,0,n/a,2026-05-02T17:19:54Z
2026-05-03 05:24:59,2.1,1.2,1032.5,East,100,0,0,94,0.0,,,0.0,0,0,n/a,2026-05-02T17:24:59Z
2026-05-03 05:29:56,2.1,1.2,1032.5,East,100,0,0,94,0.0,,,0.0,0,0,n/a,2026-05-02T17:29:56Z
2026-05-03 05:34:54,2,1.1,1032.6,East,100,0,0,94,0.0,,,0.0,0,0,n/a,2026-05-02T17:34:54Z
2026-05-03 05:39:57,2,1.1,1032.6,East,100,0,0,94,0.0,,,0.0,0,0,n/a,2026-05-02T17:39:57Z
2026-05-03 05:44:54,1.9,1,1032.7,East,100,0,0,94,0.0,,,0.0,0,0,n/a,2026-05-02T17:44:54Z
2026-05-03 05:49:56,1.9,1,1032.7,East,100,0,0,94,0.0,,,0.0,0,0,n/a,2026-05-02T17:49:56Z
2026-05-03 05:54:56,1.9,1,1032.7,East,100,0,0,94,0.0,,,0.0,0,0,n/a,2026-05-02T17:54:56Z
2026-05-03 05:59:54,1.8,0.9,1032.6,East,100,0,0,94,0.0,,,0.0,0,0,n/a,2026-05-02T17:59:54Z
2026-05-03 06:04:59,1.8,0.9,1032.6,East,100,0,0,94,0.0,,,0.0,0,0,n/a,2026-05-02T18:04:59Z
2026-05-03 06:09:56,1.9,1,1032.6,East,100,0,0,94,0.0,,,0.0,0,0,n/a,2026-05-02T18:09:56Z
2026-05-03 06:14:55,2,1.1,1032.7,East,100,0,0,94,0.0,,,0.0,0,0,n/a,2026-05-02T18:14:55Z
2026-05-03 06:19:58,2,1.1,1032.6,East,100,0,0,94,0.0,,,0.0,0,0,n/a,2026-05-02T18:19:58Z
2026-05-03 06:24:56,2,1.2,1032.6,East,100,0,0,94,0.0,,,0.0,0,0,n/a,2026-05-02T18:24:56Z
2026-05-03 06:29:55,2.1,1.2,1032.6,East,100,0,0,94,0.0,,,0.0,0,0,n/a,2026-05-02T18:29:55Z
2026-05-03 06:34:56,2.1,1.2,1032.6,East,100,0,0,94,0.0,,,0.0,0,0,n/a,2026-05-02T18:34:56Z
2026-05-03 06:39:55,2,1.1,1032.6,East,100,0,0,94,0.0,,,0.0,0,0,n/a,2026-05-02T18:39:55Z
2026-05-03 06:44:59,2.1,1.2,1032.6,East,100,0,0,94,0.0,,,0.0,0,0,n/a,2026-05-02T18:44:59Z
2026-05-03 06:49:56,2.1,1.2,1032.5,East,100,0,0,94,0.0,,,0.0,0,0,n/a,2026-05-02T18:49:56Z
2026-05-03 06:54:54,2.1,1.2,1032.5,East,100,0,0,94,0.0,,,0.0,0,0,n/a,2026-05-02T18:54:54Z
2026-05-03 06:59:58,2.2,1.3,1032.4,East,100,0,0,94,0.0,,,0.0,0,0,n/a,2026-05-02T18:59:58Z
2026-05-03 07:04:55,2.1,1.2,1032.4,East,100,0,0,94,0.0,,,0.0,0,0,n/a,2026-05-02T19:04:55Z
2026-05-03 07:09:59,2,1.1,1032.4,East,100,0,0,94,0.0,,,0.0,0,0,n/a,2026-05-02T19:09:59Z
2026-05-03 07:14:56,1.9,1.1,1032.4,East,100,0,0,94,0.0,,,0.0,0,0,n/a,2026-05-02T19:14:56Z
2026-05-03 07:19:53,1.9,1.1,1032.4,East,100,0,0,94,0.0,,,0.0,0,0,n/a,2026-05-02T19:19:53Z
2026-05-03 07:24:56,1.9,1.1,1032.4,East,100,0,0,94,0.0,,,0.0,5,0,n/a,2026-05-02T19:24:56Z
2026-05-03 07:29:55,1.9,1.1,1032.4,East,100,0,0,94,0.0,,,0.0,7,0,n/a,2026-05-02T19:29:55Z
2026-05-03 07:34:57,1.9,1.1,1032.4,East,100,0,0,94,0.0,,,0.0,9,0,n/a,2026-05-02T19:34:57Z
2026-05-03 07:39:59,1.9,1.1,1032.4,East,100,0,0,94,0.0,,,0.0,11,0,n/a,2026-05-02T19:39:59Z
2026-05-03 07:44:58,1.9,1,1032.4,East,100,0,0,94,0.0,,,0.0,14,0,n/a,2026-05-02T19:44:58Z
2026-05-03 07:49:55,1.9,1,1032.5,East,100,0,0,94,0.0,,,0.0,21,0,n/a,2026-05-02T19:49:55Z
2026-05-03 07:54:59,2,1.1,1032.5,East,100,0,0,94,0.0,,,0.0,25,0,n/a,2026-05-02T19:54:59Z
2026-05-03 07:59:56,2.2,1.3,1032.4,East,100,0,0,94,0.0,,,0.0,28,0,n/a,2026-05-02T19:59:56Z
2026-05-03 08:04:54,2.4,1.5,1032.4,East,100,0,0,94,0.0,,,0.0,37,0,n/a,2026-05-02T20:04:54Z
2026-05-03 08:09:54,2.7,1.8,1032.5,East,100,0.3,3.2,94,0.0,,,0.0,53,0,n/a,2026-05-02T20:09:54Z
2026-05-03 08:14:58,3.1,2.3,1032.6,East,100,0.6,3.7,94.4,0.0,,,0.0,53,0,n/a,2026-05-02T20:14:58Z
2026-05-03 08:19:55,3.5,2.7,1032.6,East,100,2,3.7,94.6,0.0,,,0.0,67,0,n/a,2026-05-02T20:19:55Z
2026-05-03 08:24:58,3.9,3.1,1032.7,East,100,1.3,3.7,94.6,0.0,,,0.0,118,0,n/a,2026-05-02T20:24:58Z
2026-05-03 08:29:54,4.2,3.5,1032.6,East,100,0.2,1.9,95,0.0,,,0.0,135,0,n/a,2026-05-02T20:29:54Z
2026-05-03 08:34:58,4.5,3.8,1032.6,East,100,0.1,1.9,95,0.0,,,0.0,149,0,n/a,2026-05-02T20:34:58Z
2026-05-03 08:39:58,5,4.3,1032.7,East,100,0.3,1.9,95,0.0,,,0.0,163,0,n/a,2026-05-02T20:39:58Z
2026-05-03 08:44:55,5.7,5,1032.6,East,100,0.9,3.7,95,0.0,,,0.0,178,0,n/a,2026-05-02T20:44:55Z
2026-05-03 08:49:56,6.3,5.5,1032.7,East,100,0.6,1.9,95,0.0,,,0.0,192,0,n/a,2026-05-02T20:49:56Z
2026-05-03 08:54:54,6.6,5.8,1032.7,East,100,1.2,3.7,95,0.0,,,0.0,204,0,n/a,2026-05-02T20:54:54Z
2026-05-03 08:59:57,6.8,6.1,1032.8,East,100,0.5,3.2,95,0.0,,,0.0,218,0,n/a,2026-05-02T20:59:57Z
2026-05-03 09:04:59,7.1,6.4,1032.8,East,100,2,3.7,95,0.0,,,0.0,232,0,n/a,2026-05-02T21:04:59Z
2026-05-03 09:09:54,7.2,6.5,1032.8,East,100,1.5,3.7,95,0.0,,,0.0,246,0.5,n/a,2026-05-02T21:09:54Z
2026-05-03 09:14:57,7.3,6.6,1032.8,East,100,1.7,3.7,95,0.0,,,0.0,258,0.5,n/a,2026-05-02T21:14:57Z
2026-05-03 09:19:54,7.4,6.6,1032.8,East,100,1.8,3.7,95,0.0,,,0.0,272,0.6,n/a,2026-05-02T21:19:54Z